sensor_id;sensor_type;location;lat;lon;timestamp;P1;durP1;ratioP1;P2;durP2;ratioP2
32319;SDS011;19080;51.750;5.888;2023-05-10T00:00:54;33.83;;;28.67;;
32319;SDS011;19080;51.750;5.888;2023-05-10T00:03:21;32.83;;;27.63;;
32319;SDS011;19080;51.750;5.888;2023-05-10T00:05:48;33.25;;;26.88;;
32319;SDS011;19080;51.750;5.888;2023-05-10T00:08:14;27.00;;;23.02;;
32319;SDS011;19080;51.750;5.888;2023-05-10T00:10:41;35.38;;;28.60;;
32319;SDS011;19080;51.750;5.888;2023-05-10T00:13:08;32.70;;;27.20;;
32319;SDS011;19080;51.750;5.888;2023-05-10T00:15:34;32.08;;;26.08;;
32319;SDS011;19080;51.750;5.888;2023-05-10T00:18:01;33.70;;;26.75;;
32319;SDS011;19080;51.750;5.888;2023-05-10T00:20:28;31.60;;;26.98;;
32319;SDS011;19080;51.750;5.888;2023-05-10T00:22:55;26.67;;;23.25;;
32319;SDS011;19080;51.750;5.888;2023-05-10T00:25:22;28.02;;;24.13;;
32319;SDS011;19080;51.750;5.888;2023-05-10T00:27:49;31.95;;;26.65;;
32319;SDS011;19080;51.750;5.888;2023-05-10T00:30:16;25.98;;;23.15;;
32319;SDS011;19080;51.750;5.888;2023-05-10T00:32:43;29.25;;;23.35;;
32319;SDS011;19080;51.750;5.888;2023-05-10T00:35:10;26.63;;;22.52;;
32319;SDS011;19080;51.750;5.888;2023-05-10T00:37:37;27.08;;;23.27;;
32319;SDS011;19080;51.750;5.888;2023-05-10T00:40:04;27.10;;;23.85;;
32319;SDS011;19080;51.750;5.888;2023-05-10T00:42:32;27.35;;;22.90;;
32319;SDS011;19080;51.750;5.888;2023-05-10T00:44:58;25.48;;;22.38;;
32319;SDS011;19080;51.750;5.888;2023-05-10T00:47:25;26.13;;;21.80;;
32319;SDS011;19080;51.750;5.888;2023-05-10T00:50:07;32.92;;;26.08;;
32319;SDS011;19080;51.750;5.888;2023-05-10T00:52:35;27.58;;;22.92;;
32319;SDS011;19080;51.750;5.888;2023-05-10T00:55:02;27.83;;;22.55;;
32319;SDS011;19080;51.750;5.888;2023-05-10T00:57:30;30.90;;;24.27;;
32319;SDS011;19080;51.750;5.888;2023-05-10T00:59:57;27.50;;;23.35;;
32319;SDS011;19080;51.750;5.888;2023-05-10T01:02:25;29.23;;;23.90;;
32319;SDS011;19080;51.750;5.888;2023-05-10T01:04:52;34.47;;;25.48;;
32319;SDS011;19080;51.750;5.888;2023-05-10T01:07:18;29.05;;;23.67;;
32319;SDS011;19080;51.750;5.888;2023-05-10T01:09:45;29.23;;;24.42;;
32319;SDS011;19080;51.750;5.888;2023-05-10T01:12:12;33.97;;;26.92;;
32319;SDS011;19080;51.750;5.888;2023-05-10T01:14:38;37.22;;;26.80;;
32319;SDS011;19080;51.750;5.888;2023-05-10T01:17:06;32.03;;;24.63;;
32319;SDS011;19080;51.750;5.888;2023-05-10T01:19:35;36.15;;;26.40;;
32319;SDS011;19080;51.750;5.888;2023-05-10T01:38:22;43.13;;;30.08;;
32319;SDS011;19080;51.750;5.888;2023-05-10T01:41:18;40.67;;;29.50;;
32319;SDS011;19080;51.750;5.888;2023-05-10T01:44:01;43.35;;;30.17;;
32319;SDS011;19080;51.750;5.888;2023-05-10T01:46:36;39.00;;;29.10;;
32319;SDS011;19080;51.750;5.888;2023-05-10T01:49:08;40.22;;;29.75;;
32319;SDS011;19080;51.750;5.888;2023-05-10T01:51:41;39.90;;;28.50;;
32319;SDS011;19080;51.750;5.888;2023-05-10T01:54:14;40.47;;;29.13;;
32319;SDS011;19080;51.750;5.888;2023-05-10T01:56:44;36.72;;;27.52;;
32319;SDS011;19080;51.750;5.888;2023-05-10T01:59:17;39.17;;;28.90;;
32319;SDS011;19080;51.750;5.888;2023-05-10T02:01:46;33.70;;;26.58;;
32319;SDS011;19080;51.750;5.888;2023-05-10T02:04:16;41.25;;;28.80;;
32319;SDS011;19080;51.750;5.888;2023-05-10T02:06:45;42.60;;;29.27;;
32319;SDS011;19080;51.750;5.888;2023-05-10T02:09:14;42.53;;;30.52;;
32319;SDS011;19080;51.750;5.888;2023-05-10T02:11:43;39.65;;;27.88;;
32319;SDS011;19080;51.750;5.888;2023-05-10T02:14:11;45.60;;;29.80;;
32319;SDS011;19080;51.750;5.888;2023-05-10T02:16:38;40.53;;;28.13;;
32319;SDS011;19080;51.750;5.888;2023-05-10T02:19:06;43.85;;;30.58;;
32319;SDS011;19080;51.750;5.888;2023-05-10T02:21:35;41.83;;;28.40;;
32319;SDS011;19080;51.750;5.888;2023-05-10T02:24:03;46.63;;;31.08;;
32319;SDS011;19080;51.750;5.888;2023-05-10T02:26:31;48.67;;;32.58;;
32319;SDS011;19080;51.750;5.888;2023-05-10T02:29:04;51.28;;;30.20;;
32319;SDS011;19080;51.750;5.888;2023-05-10T02:31:33;47.70;;;31.02;;
32319;SDS011;19080;51.750;5.888;2023-05-10T02:34:01;51.45;;;33.25;;
32319;SDS011;19080;51.750;5.888;2023-05-10T02:36:30;47.05;;;31.27;;
32319;SDS011;19080;51.750;5.888;2023-05-10T02:38:58;57.78;;;36.00;;
32319;SDS011;19080;51.750;5.888;2023-05-10T02:41:27;57.95;;;35.83;;
32319;SDS011;19080;51.750;5.888;2023-05-10T02:43:57;61.95;;;37.47;;
32319;SDS011;19080;51.750;5.888;2023-05-10T02:46:27;62.92;;;35.83;;
32319;SDS011;19080;51.750;5.888;2023-05-10T02:48:55;58.65;;;36.25;;
32319;SDS011;19080;51.750;5.888;2023-05-10T02:51:23;66.57;;;38.03;;
32319;SDS011;19080;51.750;5.888;2023-05-10T02:53:53;64.70;;;37.43;;
32319;SDS011;19080;51.750;5.888;2023-05-10T02:56:29;69.88;;;37.38;;
32319;SDS011;19080;51.750;5.888;2023-05-10T02:59:01;64.45;;;37.25;;
32319;SDS011;19080;51.750;5.888;2023-05-10T03:01:28;57.65;;;34.35;;
32319;SDS011;19080;51.750;5.888;2023-05-10T03:03:56;50.53;;;33.03;;
32319;SDS011;19080;51.750;5.888;2023-05-10T03:06:23;56.13;;;32.47;;
32319;SDS011;19080;51.750;5.888;2023-05-10T03:08:50;57.60;;;35.75;;
32319;SDS011;19080;51.750;5.888;2023-05-10T03:19:50;59.58;;;34.70;;
32319;SDS011;19080;51.750;5.888;2023-05-10T03:22:23;49.17;;;31.90;;
32319;SDS011;19080;51.750;5.888;2023-05-10T03:24:58;61.35;;;34.45;;
32319;SDS011;19080;51.750;5.888;2023-05-10T03:27:34;50.85;;;31.25;;
32319;SDS011;19080;51.750;5.888;2023-05-10T03:30:02;64.05;;;36.63;;
32319;SDS011;19080;51.750;5.888;2023-05-10T03:32:32;57.80;;;34.20;;
32319;SDS011;19080;51.750;5.888;2023-05-10T03:35:05;46.42;;;29.85;;
32319;SDS011;19080;51.750;5.888;2023-05-10T03:37:34;60.05;;;36.70;;
32319;SDS011;19080;51.750;5.888;2023-05-10T03:40:02;52.85;;;34.38;;
32319;SDS011;19080;51.750;5.888;2023-05-10T03:42:31;56.17;;;37.58;;
32319;SDS011;19080;51.750;5.888;2023-05-10T03:44:58;51.45;;;34.33;;
32319;SDS011;19080;51.750;5.888;2023-05-10T03:47:25;58.05;;;36.30;;
32319;SDS011;19080;51.750;5.888;2023-05-10T03:49:52;56.28;;;36.90;;
32319;SDS011;19080;51.750;5.888;2023-05-10T03:52:18;59.47;;;38.45;;
32319;SDS011;19080;51.750;5.888;2023-05-10T03:54:47;52.33;;;34.83;;
32319;SDS011;19080;51.750;5.888;2023-05-10T03:57:14;57.88;;;36.83;;
32319;SDS011;19080;51.750;5.888;2023-05-10T03:59:40;60.22;;;37.25;;
32319;SDS011;19080;51.750;5.888;2023-05-10T04:02:07;51.28;;;34.50;;
32319;SDS011;19080;51.750;5.888;2023-05-10T04:04:35;53.85;;;36.53;;
32319;SDS011;19080;51.750;5.888;2023-05-10T04:07:02;49.55;;;35.60;;
32319;SDS011;19080;51.750;5.888;2023-05-10T04:09:29;58.42;;;38.70;;
32319;SDS011;19080;51.750;5.888;2023-05-10T04:11:56;63.97;;;38.05;;
32319;SDS011;19080;51.750;5.888;2023-05-10T04:14:22;52.53;;;35.97;;
32319;SDS011;19080;51.750;5.888;2023-05-10T04:16:49;50.38;;;35.03;;
32319;SDS011;19080;51.750;5.888;2023-05-10T04:19:15;49.70;;;34.72;;
32319;SDS011;19080;51.750;5.888;2023-05-10T04:21:43;50.75;;;35.65;;
32319;SDS011;19080;51.750;5.888;2023-05-10T04:24:10;57.63;;;38.15;;
32319;SDS011;19080;51.750;5.888;2023-05-10T04:26:38;62.70;;;42.20;;
32319;SDS011;19080;51.750;5.888;2023-05-10T04:29:05;60.78;;;40.05;;
32319;SDS011;19080;51.750;5.888;2023-05-10T04:31:31;55.85;;;39.75;;
32319;SDS011;19080;51.750;5.888;2023-05-10T04:33:58;60.85;;;40.40;;
32319;SDS011;19080;51.750;5.888;2023-05-10T04:36:25;61.70;;;42.70;;
32319;SDS011;19080;51.750;5.888;2023-05-10T04:38:51;70.32;;;46.25;;
32319;SDS011;19080;51.750;5.888;2023-05-10T04:41:19;66.55;;;41.55;;
32319;SDS011;19080;51.750;5.888;2023-05-10T04:43:46;62.22;;;41.50;;
32319;SDS011;19080;51.750;5.888;2023-05-10T04:46:15;58.03;;;40.80;;
32319;SDS011;19080;51.750;5.888;2023-05-10T04:48:41;64.00;;;39.38;;
32319;SDS011;19080;51.750;5.888;2023-05-10T04:51:08;59.67;;;41.95;;
32319;SDS011;19080;51.750;5.888;2023-05-10T04:53:35;58.25;;;38.33;;
32319;SDS011;19080;51.750;5.888;2023-05-10T04:56:02;55.80;;;38.28;;
32319;SDS011;19080;51.750;5.888;2023-05-10T04:58:29;63.20;;;40.75;;
32319;SDS011;19080;51.750;5.888;2023-05-10T05:00:55;59.95;;;38.20;;
32319;SDS011;19080;51.750;5.888;2023-05-10T05:03:22;52.08;;;36.97;;
32319;SDS011;19080;51.750;5.888;2023-05-10T05:05:49;61.13;;;41.17;;
32319;SDS011;19080;51.750;5.888;2023-05-10T05:08:16;60.50;;;40.03;;
32319;SDS011;19080;51.750;5.888;2023-05-10T05:10:42;57.17;;;40.65;;
32319;SDS011;19080;51.750;5.888;2023-05-10T05:13:09;53.47;;;36.85;;
32319;SDS011;19080;51.750;5.888;2023-05-10T05:15:35;49.05;;;36.55;;
32319;SDS011;19080;51.750;5.888;2023-05-10T05:18:02;59.80;;;39.30;;
32319;SDS011;19080;51.750;5.888;2023-05-10T05:20:31;56.63;;;38.53;;
32319;SDS011;19080;51.750;5.888;2023-05-10T05:25:28;50.30;;;34.90;;
32319;SDS011;19080;51.750;5.888;2023-05-10T05:27:54;51.53;;;36.13;;
32319;SDS011;19080;51.750;5.888;2023-05-10T05:30:21;58.30;;;36.88;;
32319;SDS011;19080;51.750;5.888;2023-05-10T05:32:47;57.25;;;36.00;;
32319;SDS011;19080;51.750;5.888;2023-05-10T05:35:14;53.42;;;36.83;;
32319;SDS011;19080;51.750;5.888;2023-05-10T05:37:41;44.55;;;32.25;;
32319;SDS011;19080;51.750;5.888;2023-05-10T05:40:11;51.35;;;34.90;;
32319;SDS011;19080;51.750;5.888;2023-05-10T05:42:40;50.08;;;34.78;;
32319;SDS011;19080;51.750;5.888;2023-05-10T05:45:07;61.33;;;36.90;;
32319;SDS011;19080;51.750;5.888;2023-05-10T05:47:34;55.53;;;36.13;;
32319;SDS011;19080;51.750;5.888;2023-05-10T05:50:01;46.28;;;33.10;;
32319;SDS011;19080;51.750;5.888;2023-05-10T05:52:28;51.03;;;34.33;;
32319;SDS011;19080;51.750;5.888;2023-05-10T05:54:54;50.38;;;33.08;;
32319;SDS011;19080;51.750;5.888;2023-05-10T05:57:21;46.03;;;31.38;;
32319;SDS011;19080;51.750;5.888;2023-05-10T05:59:48;51.63;;;34.70;;
32319;SDS011;19080;51.750;5.888;2023-05-10T06:02:14;54.08;;;34.00;;
32319;SDS011;19080;51.750;5.888;2023-05-10T06:04:41;51.10;;;32.85;;
32319;SDS011;19080;51.750;5.888;2023-05-10T06:07:10;51.05;;;33.97;;
32319;SDS011;19080;51.750;5.888;2023-05-10T06:09:36;52.53;;;35.42;;
32319;SDS011;19080;51.750;5.888;2023-05-10T06:12:03;56.15;;;35.42;;
32319;SDS011;19080;51.750;5.888;2023-05-10T06:14:30;48.13;;;32.35;;
32319;SDS011;19080;51.750;5.888;2023-05-10T06:16:56;55.13;;;34.53;;
32319;SDS011;19080;51.750;5.888;2023-05-10T06:19:23;49.78;;;34.45;;
32319;SDS011;19080;51.750;5.888;2023-05-10T06:21:50;49.47;;;34.38;;
32319;SDS011;19080;51.750;5.888;2023-05-10T06:24:19;52.13;;;35.35;;
32319;SDS011;19080;51.750;5.888;2023-05-10T06:26:46;46.03;;;31.48;;
32319;SDS011;19080;51.750;5.888;2023-05-10T06:29:12;54.47;;;34.80;;
32319;SDS011;19080;51.750;5.888;2023-05-10T06:31:39;50.63;;;34.28;;
32319;SDS011;19080;51.750;5.888;2023-05-10T06:34:05;53.83;;;34.15;;
32319;SDS011;19080;51.750;5.888;2023-05-10T06:36:34;47.47;;;32.95;;
32319;SDS011;19080;51.750;5.888;2023-05-10T06:39:00;48.03;;;32.60;;
32319;SDS011;19080;51.750;5.888;2023-05-10T06:41:27;41.10;;;30.40;;
32319;SDS011;19080;51.750;5.888;2023-05-10T06:43:53;48.47;;;32.60;;
32319;SDS011;19080;51.750;5.888;2023-05-10T06:46:20;45.97;;;31.38;;
32319;SDS011;19080;51.750;5.888;2023-05-10T06:48:46;47.88;;;32.17;;
32319;SDS011;19080;51.750;5.888;2023-05-10T06:51:13;42.88;;;29.58;;
32319;SDS011;19080;51.750;5.888;2023-05-10T06:53:40;39.42;;;28.95;;
32319;SDS011;19080;51.750;5.888;2023-05-10T06:56:06;38.28;;;28.08;;
32319;SDS011;19080;51.750;5.888;2023-05-10T06:58:33;50.20;;;31.67;;
32319;SDS011;19080;51.750;5.888;2023-05-10T07:01:03;47.60;;;30.73;;
32319;SDS011;19080;51.750;5.888;2023-05-10T07:03:31;44.63;;;31.92;;
32319;SDS011;19080;51.750;5.888;2023-05-10T07:06:02;45.20;;;29.65;;
32319;SDS011;19080;51.750;5.888;2023-05-10T07:08:30;42.77;;;30.03;;
32319;SDS011;19080;51.750;5.888;2023-05-10T07:11:01;40.92;;;29.58;;
32319;SDS011;19080;51.750;5.888;2023-05-10T07:13:31;49.10;;;30.60;;
32319;SDS011;19080;51.750;5.888;2023-05-10T07:15:58;44.95;;;31.77;;
32319;SDS011;19080;51.750;5.888;2023-05-10T07:18:26;44.72;;;29.33;;
32319;SDS011;19080;51.750;5.888;2023-05-10T07:20:52;45.13;;;30.70;;
32319;SDS011;19080;51.750;5.888;2023-05-10T07:23:19;40.58;;;29.38;;
32319;SDS011;19080;51.750;5.888;2023-05-10T07:25:47;44.05;;;30.60;;
32319;SDS011;19080;51.750;5.888;2023-05-10T07:28:14;38.00;;;28.02;;
32319;SDS011;19080;51.750;5.888;2023-05-10T07:30:42;48.15;;;30.65;;
32319;SDS011;19080;51.750;5.888;2023-05-10T07:33:09;41.45;;;29.10;;
32319;SDS011;19080;51.750;5.888;2023-05-10T07:35:37;37.25;;;28.23;;
32319;SDS011;19080;51.750;5.888;2023-05-10T07:38:03;40.47;;;28.25;;
32319;SDS011;19080;51.750;5.888;2023-05-10T07:40:30;38.88;;;27.27;;
32319;SDS011;19080;51.750;5.888;2023-05-10T07:42:57;42.13;;;29.55;;
32319;SDS011;19080;51.750;5.888;2023-05-10T07:45:24;36.10;;;26.60;;
32319;SDS011;19080;51.750;5.888;2023-05-10T07:47:51;40.28;;;28.95;;
32319;SDS011;19080;51.750;5.888;2023-05-10T07:50:18;37.95;;;28.30;;
32319;SDS011;19080;51.750;5.888;2023-05-10T07:52:44;34.90;;;26.95;;
32319;SDS011;19080;51.750;5.888;2023-05-10T07:55:11;39.70;;;27.65;;
32319;SDS011;19080;51.750;5.888;2023-05-10T07:57:37;38.22;;;27.27;;
32319;SDS011;19080;51.750;5.888;2023-05-10T08:00:05;39.08;;;28.45;;
32319;SDS011;19080;51.750;5.888;2023-05-10T08:02:38;42.50;;;29.52;;
32319;SDS011;19080;51.750;5.888;2023-05-10T08:05:05;47.95;;;30.90;;
32319;SDS011;19080;51.750;5.888;2023-05-10T08:07:32;41.28;;;29.15;;
32319;SDS011;19080;51.750;5.888;2023-05-10T08:09:58;42.13;;;30.23;;
32319;SDS011;19080;51.750;5.888;2023-05-10T08:12:25;51.97;;;33.95;;
32319;SDS011;19080;51.750;5.888;2023-05-10T08:14:51;49.72;;;33.25;;
32319;SDS011;19080;51.750;5.888;2023-05-10T08:17:18;48.08;;;31.50;;
32319;SDS011;19080;51.750;5.888;2023-05-10T08:19:46;45.20;;;32.58;;
32319;SDS011;19080;51.750;5.888;2023-05-10T08:22:13;45.70;;;30.73;;
32319;SDS011;19080;51.750;5.888;2023-05-10T08:24:39;49.55;;;34.15;;
32319;SDS011;19080;51.750;5.888;2023-05-10T08:27:08;53.28;;;36.25;;
32319;SDS011;19080;51.750;5.888;2023-05-10T08:29:34;49.90;;;34.53;;
32319;SDS011;19080;51.750;5.888;2023-05-10T08:32:15;48.33;;;33.97;;
32319;SDS011;19080;51.750;5.888;2023-05-10T08:34:41;47.50;;;32.28;;
32319;SDS011;19080;51.750;5.888;2023-05-10T08:37:08;51.20;;;32.88;;
32319;SDS011;19080;51.750;5.888;2023-05-10T08:39:35;43.38;;;32.42;;
32319;SDS011;19080;51.750;5.888;2023-05-10T08:42:02;47.42;;;32.28;;
32319;SDS011;19080;51.750;5.888;2023-05-10T08:44:34;38.90;;;30.65;;
32319;SDS011;19080;51.750;5.888;2023-05-10T08:47:04;44.83;;;29.33;;
32319;SDS011;19080;51.750;5.888;2023-05-10T08:49:33;37.67;;;29.05;;
32319;SDS011;19080;51.750;5.888;2023-05-10T08:52:02;40.35;;;28.08;;
32319;SDS011;19080;51.750;5.888;2023-05-10T08:54:33;37.55;;;27.55;;
32319;SDS011;19080;51.750;5.888;2023-05-10T08:57:00;45.63;;;31.13;;
32319;SDS011;19080;51.750;5.888;2023-05-10T08:59:27;41.25;;;29.10;;
32319;SDS011;19080;51.750;5.888;2023-05-10T09:01:55;41.33;;;29.80;;
32319;SDS011;19080;51.750;5.888;2023-05-10T09:04:23;42.83;;;29.15;;
32319;SDS011;19080;51.750;5.888;2023-05-10T09:06:51;45.65;;;31.52;;
32319;SDS011;19080;51.750;5.888;2023-05-10T09:09:18;37.88;;;28.77;;
32319;SDS011;19080;51.750;5.888;2023-05-10T09:11:46;40.15;;;28.92;;
32319;SDS011;19080;51.750;5.888;2023-05-10T09:14:13;41.38;;;29.90;;
32319;SDS011;19080;51.750;5.888;2023-05-10T09:16:41;36.63;;;27.45;;
32319;SDS011;19080;51.750;5.888;2023-05-10T09:19:08;37.22;;;27.33;;
32319;SDS011;19080;51.750;5.888;2023-05-10T09:21:35;35.65;;;27.60;;
32319;SDS011;19080;51.750;5.888;2023-05-10T09:24:06;36.35;;;26.73;;
32319;SDS011;19080;51.750;5.888;2023-05-10T09:26:34;33.80;;;25.42;;
32319;SDS011;19080;51.750;5.888;2023-05-10T09:29:02;31.17;;;23.70;;
32319;SDS011;19080;51.750;5.888;2023-05-10T09:34:22;39.45;;;26.60;;
32319;SDS011;19080;51.750;5.888;2023-05-10T09:36:56;48.38;;;30.40;;
32319;SDS011;19080;51.750;5.888;2023-05-10T09:39:30;43.13;;;30.52;;
32319;SDS011;19080;51.750;5.888;2023-05-10T09:42:05;47.85;;;30.20;;
32319;SDS011;19080;51.750;5.888;2023-05-10T09:44:34;46.78;;;29.67;;
32319;SDS011;19080;51.750;5.888;2023-05-10T09:47:01;48.80;;;30.83;;
32319;SDS011;19080;51.750;5.888;2023-05-10T09:49:28;50.42;;;30.48;;
32319;SDS011;19080;51.750;5.888;2023-05-10T09:51:59;43.88;;;30.33;;
32319;SDS011;19080;51.750;5.888;2023-05-10T09:54:27;48.17;;;29.67;;
32319;SDS011;19080;51.750;5.888;2023-05-10T09:56:54;48.45;;;29.75;;
32319;SDS011;19080;51.750;5.888;2023-05-10T09:59:21;46.95;;;29.98;;
32319;SDS011;19080;51.750;5.888;2023-05-10T10:01:51;45.05;;;27.40;;
32319;SDS011;19080;51.750;5.888;2023-05-10T10:04:18;36.95;;;25.85;;
32319;SDS011;19080;51.750;5.888;2023-05-10T10:06:47;39.10;;;25.63;;
32319;SDS011;19080;51.750;5.888;2023-05-10T10:09:25;37.47;;;24.92;;
32319;SDS011;19080;51.750;5.888;2023-05-10T10:11:52;36.10;;;25.50;;
32319;SDS011;19080;51.750;5.888;2023-05-10T10:14:19;34.97;;;23.88;;
32319;SDS011;19080;51.750;5.888;2023-05-10T10:16:48;40.20;;;25.50;;
32319;SDS011;19080;51.750;5.888;2023-05-10T10:19:33;36.05;;;25.30;;
32319;SDS011;19080;51.750;5.888;2023-05-10T10:22:02;33.75;;;23.52;;
32319;SDS011;19080;51.750;5.888;2023-05-10T10:24:29;30.00;;;21.38;;
32319;SDS011;19080;51.750;5.888;2023-05-10T10:26:56;38.88;;;23.98;;
32319;SDS011;19080;51.750;5.888;2023-05-10T10:29:44;35.28;;;23.55;;
32319;SDS011;19080;51.750;5.888;2023-05-10T10:32:30;32.55;;;23.67;;
32319;SDS011;19080;51.750;5.888;2023-05-10T10:35:08;29.80;;;22.02;;
32319;SDS011;19080;51.750;5.888;2023-05-10T10:37:46;32.78;;;22.23;;
32319;SDS011;19080;51.750;5.888;2023-05-10T10:42:51;28.90;;;19.98;;
32319;SDS011;19080;51.750;5.888;2023-05-10T10:45:18;28.20;;;20.55;;
32319;SDS011;19080;51.750;5.888;2023-05-10T10:47:45;32.83;;;22.15;;
32319;SDS011;19080;51.750;5.888;2023-05-10T10:50:12;31.08;;;22.73;;
32319;SDS011;19080;51.750;5.888;2023-05-10T10:52:39;33.65;;;24.42;;
32319;SDS011;19080;51.750;5.888;2023-05-10T11:00:30;30.77;;;24.00;;
32319;SDS011;19080;51.750;5.888;2023-05-10T11:10:49;24.23;;;18.02;;
32319;SDS011;19080;51.750;5.888;2023-05-10T11:16:13;27.33;;;19.40;;
32319;SDS011;19080;51.750;5.888;2023-05-10T11:21:30;19.10;;;15.85;;
32319;SDS011;19080;51.750;5.888;2023-05-10T11:23:58;19.58;;;16.38;;
32319;SDS011;19080;51.750;5.888;2023-05-10T11:26:29;19.92;;;16.23;;
32319;SDS011;19080;51.750;5.888;2023-05-10T11:28:57;20.90;;;15.20;;
32319;SDS011;19080;51.750;5.888;2023-05-10T11:31:28;15.60;;;13.13;;
32319;SDS011;19080;51.750;5.888;2023-05-10T11:33:56;14.25;;;12.73;;
32319;SDS011;19080;51.750;5.888;2023-05-10T11:36:24;20.70;;;12.68;;
32319;SDS011;19080;51.750;5.888;2023-05-10T11:38:52;15.95;;;12.38;;
32319;SDS011;19080;51.750;5.888;2023-05-10T11:41:20;16.27;;;13.15;;
32319;SDS011;19080;51.750;5.888;2023-05-10T11:43:52;14.25;;;12.65;;
32319;SDS011;19080;51.750;5.888;2023-05-10T11:46:20;15.15;;;11.95;;
32319;SDS011;19080;51.750;5.888;2023-05-10T11:48:52;17.88;;;13.73;;
32319;SDS011;19080;51.750;5.888;2023-05-10T11:51:20;15.85;;;12.40;;
32319;SDS011;19080;51.750;5.888;2023-05-10T11:53:49;13.57;;;11.20;;
32319;SDS011;19080;51.750;5.888;2023-05-10T11:56:22;11.52;;;9.75;;
32319;SDS011;19080;51.750;5.888;2023-05-10T11:58:56;12.35;;;10.88;;
32319;SDS011;19080;51.750;5.888;2023-05-10T12:01:24;12.18;;;10.00;;
32319;SDS011;19080;51.750;5.888;2023-05-10T12:03:53;10.43;;;9.18;;
32319;SDS011;19080;51.750;5.888;2023-05-10T12:06:21;10.20;;;8.68;;
32319;SDS011;19080;51.750;5.888;2023-05-10T12:08:49;13.88;;;9.98;;
32319;SDS011;19080;51.750;5.888;2023-05-10T12:11:20;11.50;;;9.85;;
32319;SDS011;19080;51.750;5.888;2023-05-10T12:13:51;10.18;;;9.15;;
32319;SDS011;19080;51.750;5.888;2023-05-10T12:16:19;10.25;;;8.95;;
32319;SDS011;19080;51.750;5.888;2023-05-10T12:18:50;13.68;;;9.57;;
32319;SDS011;19080;51.750;5.888;2023-05-10T12:21:21;11.38;;;9.48;;
32319;SDS011;19080;51.750;5.888;2023-05-10T12:23:49;10.18;;;8.45;;
32319;SDS011;19080;51.750;5.888;2023-05-10T12:26:17;15.85;;;8.63;;
32319;SDS011;19080;51.750;5.888;2023-05-10T12:28:43;12.77;;;8.85;;
32319;SDS011;19080;51.750;5.888;2023-05-10T12:31:10;11.18;;;9.05;;
32319;SDS011;19080;51.750;5.888;2023-05-10T12:33:38;10.93;;;9.15;;
32319;SDS011;19080;51.750;5.888;2023-05-10T12:36:08;9.85;;;8.63;;
32319;SDS011;19080;51.750;5.888;2023-05-10T12:38:39;11.55;;;8.88;;
32319;SDS011;19080;51.750;5.888;2023-05-10T12:41:10;8.35;;;7.38;;
32319;SDS011;19080;51.750;5.888;2023-05-10T12:43:37;8.80;;;7.88;;
32319;SDS011;19080;51.750;5.888;2023-05-10T12:46:06;8.82;;;7.90;;
32319;SDS011;19080;51.750;5.888;2023-05-10T12:48:36;10.43;;;7.72;;
32319;SDS011;19080;51.750;5.888;2023-05-10T12:51:04;8.57;;;7.30;;
32319;SDS011;19080;51.750;5.888;2023-05-10T12:53:31;8.25;;;7.40;;
32319;SDS011;19080;51.750;5.888;2023-05-10T12:55:58;7.72;;;6.90;;
32319;SDS011;19080;51.750;5.888;2023-05-10T12:58:24;8.55;;;7.65;;
32319;SDS011;19080;51.750;5.888;2023-05-10T13:01:01;9.32;;;6.78;;
32319;SDS011;19080;51.750;5.888;2023-05-10T13:03:28;8.30;;;7.50;;
32319;SDS011;19080;51.750;5.888;2023-05-10T13:05:55;9.90;;;8.13;;
32319;SDS011;19080;51.750;5.888;2023-05-10T13:08:22;10.45;;;8.70;;
32319;SDS011;19080;51.750;5.888;2023-05-10T13:10:48;13.50;;;9.55;;
32319;SDS011;19080;51.750;5.888;2023-05-10T13:13:15;9.68;;;8.77;;
32319;SDS011;19080;51.750;5.888;2023-05-10T13:15:42;12.02;;;10.65;;
32319;SDS011;19080;51.750;5.888;2023-05-10T13:18:08;14.88;;;10.05;;
32319;SDS011;19080;51.750;5.888;2023-05-10T13:20:35;12.25;;;10.18;;
32319;SDS011;19080;51.750;5.888;2023-05-10T13:23:02;11.40;;;8.90;;
32319;SDS011;19080;51.750;5.888;2023-05-10T13:25:28;14.20;;;11.07;;
32319;SDS011;19080;51.750;5.888;2023-05-10T13:27:56;14.05;;;11.80;;
32319;SDS011;19080;51.750;5.888;2023-05-10T13:30:22;12.52;;;10.82;;
32319;SDS011;19080;51.750;5.888;2023-05-10T13:32:50;15.18;;;11.15;;
32319;SDS011;19080;51.750;5.888;2023-05-10T13:35:17;11.23;;;10.13;;
32319;SDS011;19080;51.750;5.888;2023-05-10T13:37:43;12.50;;;9.70;;
32319;SDS011;19080;51.750;5.888;2023-05-10T13:40:10;10.10;;;9.10;;
32319;SDS011;19080;51.750;5.888;2023-05-10T13:42:36;11.70;;;9.50;;
32319;SDS011;19080;51.750;5.888;2023-05-10T13:45:03;12.45;;;10.00;;
32319;SDS011;19080;51.750;5.888;2023-05-10T13:47:30;11.57;;;8.65;;
32319;SDS011;19080;51.750;5.888;2023-05-10T13:49:57;7.57;;;6.88;;
32319;SDS011;19080;51.750;5.888;2023-05-10T13:52:24;9.70;;;7.80;;
32319;SDS011;19080;51.750;5.888;2023-05-10T13:54:52;8.80;;;7.75;;
32319;SDS011;19080;51.750;5.888;2023-05-10T13:57:21;6.82;;;6.20;;
32319;SDS011;19080;51.750;5.888;2023-05-10T13:59:48;7.95;;;6.43;;
32319;SDS011;19080;51.750;5.888;2023-05-10T14:02:14;5.30;;;4.70;;
32319;SDS011;19080;51.750;5.888;2023-05-10T14:04:41;5.35;;;4.85;;
32319;SDS011;19080;51.750;5.888;2023-05-10T14:07:08;5.70;;;5.22;;
32319;SDS011;19080;51.750;5.888;2023-05-10T14:09:34;5.57;;;5.07;;
32319;SDS011;19080;51.750;5.888;2023-05-10T14:12:01;11.20;;;6.60;;
32319;SDS011;19080;51.750;5.888;2023-05-10T14:14:28;6.82;;;6.20;;
32319;SDS011;19080;51.750;5.888;2023-05-10T14:16:55;6.95;;;6.28;;
32319;SDS011;19080;51.750;5.888;2023-05-10T14:19:22;7.20;;;6.50;;
32319;SDS011;19080;51.750;5.888;2023-05-10T14:21:48;8.93;;;7.82;;
32319;SDS011;19080;51.750;5.888;2023-05-10T14:24:15;7.60;;;6.75;;
32319;SDS011;19080;51.750;5.888;2023-05-10T14:26:41;8.80;;;7.97;;
32319;SDS011;19080;51.750;5.888;2023-05-10T14:29:08;10.25;;;8.52;;
32319;SDS011;19080;51.750;5.888;2023-05-10T14:31:37;9.95;;;7.57;;
32319;SDS011;19080;51.750;5.888;2023-05-10T14:34:04;9.55;;;8.68;;
32319;SDS011;19080;51.750;5.888;2023-05-10T14:36:31;10.02;;;8.48;;
32319;SDS011;19080;51.750;5.888;2023-05-10T14:38:58;9.40;;;8.60;;
32319;SDS011;19080;51.750;5.888;2023-05-10T14:41:25;9.30;;;8.40;;
32319;SDS011;19080;51.750;5.888;2023-05-10T14:43:51;9.43;;;8.50;;
32319;SDS011;19080;51.750;5.888;2023-05-10T14:46:19;10.57;;;9.57;;
32319;SDS011;19080;51.750;5.888;2023-05-10T14:48:46;9.13;;;8.32;;
32319;SDS011;19080;51.750;5.888;2023-05-10T14:51:13;8.88;;;7.97;;
32319;SDS011;19080;51.750;5.888;2023-05-10T14:53:39;10.27;;;9.25;;
32319;SDS011;19080;51.750;5.888;2023-05-10T14:56:06;10.60;;;9.60;;
32319;SDS011;19080;51.750;5.888;2023-05-10T14:58:33;8.98;;;8.07;;
32319;SDS011;19080;51.750;5.888;2023-05-10T15:01:00;7.05;;;6.35;;
32319;SDS011;19080;51.750;5.888;2023-05-10T15:03:27;5.95;;;5.45;;
32319;SDS011;19080;51.750;5.888;2023-05-10T15:05:55;6.30;;;5.70;;
32319;SDS011;19080;51.750;5.888;2023-05-10T15:08:23;6.40;;;5.65;;
32319;SDS011;19080;51.750;5.888;2023-05-10T15:10:51;8.38;;;7.60;;
32319;SDS011;19080;51.750;5.888;2023-05-10T15:13:17;7.43;;;6.72;;
32319;SDS011;19080;51.750;5.888;2023-05-10T15:15:44;6.50;;;5.80;;
32319;SDS011;19080;51.750;5.888;2023-05-10T15:18:11;6.13;;;5.63;;
32319;SDS011;19080;51.750;5.888;2023-05-10T15:20:37;6.93;;;6.32;;
32319;SDS011;19080;51.750;5.888;2023-05-10T15:23:04;5.75;;;5.25;;